createdAt,value
2019-05-07T00:01:51.344Z,19.65
2019-05-07T00:04:18.052Z,18.92
2019-05-07T00:06:46.499Z,19.32
2019-05-07T00:09:15.077Z,18.60
2019-05-07T00:11:43.509Z,17.15
2019-05-07T00:14:12.611Z,17.75
2019-05-07T00:16:42.342Z,21.50
2019-05-07T00:19:23.831Z,19.95
2019-05-07T00:22:02.393Z,14.53
2019-05-07T00:24:46.337Z,19.45
2019-05-07T00:27:22.429Z,17.97
2019-05-07T00:29:58.188Z,18.92
2019-05-07T00:32:32.799Z,18.50
2019-05-07T00:35:27.838Z,16.82
2019-05-07T00:38:02.551Z,17.17
2019-05-07T00:40:37.071Z,19.42
2019-05-07T00:43:12.432Z,19.95
2019-05-07T00:45:45.820Z,18.30
2019-05-07T00:48:42.303Z,18.77
2019-05-07T00:51:23.204Z,20.25
2019-05-07T00:54:12.352Z,18.57
2019-05-07T00:59:44.934Z,22.17
2019-05-07T01:02:16.857Z,18.07
2019-05-07T01:04:57.082Z,22.45
2019-05-07T01:07:52.755Z,21.52
2019-05-07T01:10:33.049Z,19.70
2019-05-07T01:16:04.054Z,23.70
2019-05-07T01:18:47.980Z,22.20
2019-05-07T01:21:16.423Z,21.30
2019-05-07T01:23:45.186Z,21.30
2019-05-07T01:26:14.119Z,20.62
2019-05-07T01:28:58.518Z,21.77
2019-05-07T01:31:32.915Z,23.85
2019-05-07T01:34:22.951Z,23.65
2019-05-07T01:36:52.355Z,22.90
2019-05-07T01:39:23.159Z,22.58
2019-05-07T01:42:08.517Z,23.55
2019-05-07T01:44:37.092Z,23.40
2019-05-07T01:47:05.538Z,21.77
2019-05-07T01:49:33.986Z,23.75
2019-05-07T01:52:02.756Z,22.30
2019-05-07T01:54:33.322Z,23.60
2019-05-07T01:57:02.870Z,21.62
2019-05-07T01:59:32.228Z,23.02
2019-05-07T02:02:08.074Z,23.27
2019-05-07T02:04:47.281Z,21.82
2019-05-07T02:07:26.317Z,24.67
2019-05-07T02:10:02.932Z,23.05
2019-05-07T02:12:33.367Z,23.52
2019-05-07T02:15:02.665Z,20.37
2019-05-07T02:17:32.213Z,23.73
2019-05-07T02:20:02.652Z,23.40
2019-05-07T02:22:31.995Z,25.55
2019-05-07T02:25:03.077Z,27.07
2019-05-07T02:27:32.660Z,25.82
2019-05-07T02:30:04.212Z,20.72
2019-05-07T02:32:33.555Z,26.37
2019-05-07T02:35:04.128Z,21.33
2019-05-07T02:37:46.408Z,22.48
2019-05-07T02:40:14.190Z,21.97
2019-05-07T02:42:44.325Z,24.27
2019-05-07T02:45:23.979Z,25.40
2019-05-07T02:47:52.724Z,24.35
2019-05-07T02:50:25.572Z,25.40
2019-05-07T02:52:55.632Z,21.87
2019-05-07T02:55:37.962Z,24.12
2019-05-07T02:58:06.488Z,27.22
2019-05-07T03:00:35.587Z,26.48
2019-05-07T03:03:04.686Z,26.57
2019-05-07T03:05:34.948Z,28.40
2019-05-07T03:08:03.813Z,27.40
2019-05-07T03:10:34.040Z,30.65
2019-05-07T03:13:03.214Z,27.82
2019-05-07T03:15:33.205Z,27.77
2019-05-07T03:18:03.412Z,29.12
2019-05-07T03:20:36.999Z,28.12
2019-05-07T03:23:06.266Z,27.15
2019-05-07T03:25:43.078Z,31.37
2019-05-07T03:28:13.601Z,27.25
2019-05-07T03:30:57.132Z,28.90
2019-05-07T03:33:47.273Z,29.52
2019-05-07T03:36:16.511Z,26.05
2019-05-07T03:38:44.630Z,23.42
2019-05-07T03:41:13.080Z,22.07
2019-05-07T03:43:43.498Z,26.93
2019-05-07T03:46:14.084Z,29.12
2019-05-07T03:48:44.389Z,25.32
2019-05-07T03:51:13.361Z,26.33
2019-05-07T03:53:43.670Z,24.52
2019-05-07T03:56:13.099Z,26.60
2019-05-07T03:58:43.287Z,29.12
2019-05-07T04:01:13.308Z,28.52
2019-05-07T04:03:44.692Z,28.32
2019-05-07T04:06:12.780Z,28.65
2019-05-07T04:08:43.342Z,20.02
2019-05-07T04:11:13.953Z,24.35
2019-05-07T04:13:44.150Z,21.15
2019-05-07T04:16:13.526Z,24.27
2019-05-07T04:18:43.853Z,24.07
2019-05-07T04:21:13.995Z,24.40
2019-05-07T04:23:43.794Z,24.63
2019-05-07T04:26:23.373Z,23.92
2019-05-07T04:29:05.658Z,24.63
2019-05-07T04:31:34.543Z,26.65
2019-05-07T04:34:04.839Z,25.55
2019-05-07T04:36:34.496Z,25.55
2019-05-07T04:39:03.342Z,25.72
2019-05-07T04:41:32.894Z,23.38
2019-05-07T04:44:03.585Z,23.85
2019-05-07T04:46:33.462Z,25.92
2019-05-07T04:49:03.779Z,22.75
2019-05-07T04:51:33.800Z,24.05
2019-05-07T04:54:03.531Z,24.00
2019-05-07T04:56:33.695Z,18.85
2019-05-07T04:59:03.619Z,24.85
2019-05-07T05:01:33.995Z,26.90
2019-05-07T05:04:20.706Z,20.57
2019-05-07T05:06:33.020Z,23.30
2019-05-07T05:09:03.050Z,21.60
2019-05-07T05:11:33.552Z,24.65
2019-05-07T05:14:02.853Z,24.57
2019-05-07T05:16:34.964Z,26.45
2019-05-07T05:19:03.402Z,25.70
2019-05-07T05:21:45.419Z,28.00
2019-05-07T05:24:15.511Z,28.95
2019-05-07T05:26:43.952Z,25.88
2019-05-07T05:29:12.377Z,27.50
2019-05-07T05:31:42.268Z,28.27
2019-05-07T05:34:12.959Z,26.93
2019-05-07T05:36:42.456Z,26.73
2019-05-07T05:39:13.124Z,24.30
2019-05-07T05:41:44.595Z,30.97
2019-05-07T05:44:26.666Z,29.98
2019-05-07T05:46:55.123Z,30.02
2019-05-07T05:49:23.544Z,30.77
2019-05-07T05:52:05.308Z,30.32
2019-05-07T05:54:35.384Z,24.75
2019-05-07T05:57:05.665Z,25.97
2019-05-07T05:59:47.960Z,23.27
2019-05-07T06:02:12.170Z,29.32
2019-05-07T06:04:42.338Z,25.52
2019-05-07T06:07:18.526Z,25.37
2019-05-07T06:09:48.595Z,25.60
2019-05-07T06:12:18.656Z,25.80
2019-05-07T06:14:48.733Z,28.95
2019-05-07T06:17:33.850Z,28.42
2019-05-07T06:20:06.732Z,23.45
2019-05-07T06:22:45.332Z,20.97
2019-05-07T06:25:15.661Z,26.48
2019-05-07T06:27:44.058Z,28.62
2019-05-07T06:30:14.216Z,29.48
2019-05-07T06:32:43.067Z,26.00
2019-05-07T06:35:12.378Z,27.48
2019-05-07T06:37:42.889Z,28.27
2019-05-07T06:40:31.626Z,23.07
2019-05-07T06:43:03.523Z,26.65
2019-05-07T06:45:36.276Z,27.70
2019-05-07T06:48:04.760Z,26.48
2019-05-07T06:50:33.169Z,27.73
2019-05-07T06:53:02.668Z,24.77
2019-05-07T06:55:32.376Z,26.57
2019-05-07T06:58:02.662Z,27.62
2019-05-07T07:00:33.288Z,25.80
2019-05-07T07:03:18.390Z,22.55
2019-05-07T07:05:57.492Z,23.73
2019-05-07T07:08:33.616Z,21.65
2019-05-07T07:11:12.938Z,24.95
2019-05-07T07:13:42.667Z,23.50
2019-05-07T07:16:12.811Z,21.70
2019-05-07T07:18:51.241Z,22.00
2019-05-07T07:21:12.379Z,25.75
2019-05-07T07:23:42.802Z,23.45
2019-05-07T07:26:12.627Z,27.13
2019-05-07T07:28:42.959Z,24.60
2019-05-07T07:31:13.119Z,24.80
2019-05-07T07:33:49.470Z,21.05
2019-05-07T07:36:18.934Z,23.98
2019-05-07T07:38:47.357Z,24.12
2019-05-07T07:41:23.430Z,22.20
2019-05-07T07:43:52.563Z,21.87
2019-05-07T07:46:24.122Z,20.55
2019-05-07T07:49:06.831Z,18.87
2019-05-07T07:51:37.263Z,21.27
2019-05-07T07:53:52.975Z,18.73
2019-05-07T07:56:23.250Z,18.80
2019-05-07T07:59:10.082Z,17.65
2019-05-07T08:01:45.926Z,16.65
2019-05-07T08:04:15.018Z,20.10
2019-05-07T08:06:43.450Z,18.85
2019-05-07T08:09:12.940Z,16.42
2019-05-07T08:11:42.931Z,20.30
2019-05-07T08:14:12.601Z,19.60
2019-05-07T08:16:42.976Z,19.35
2019-05-07T08:19:20.942Z,18.65
2019-05-07T08:21:42.109Z,17.87
2019-05-07T08:24:12.245Z,16.67
2019-05-07T08:26:42.840Z,15.75
2019-05-07T08:29:11.920Z,17.35
2019-05-07T08:31:42.512Z,19.10
2019-05-07T08:34:18.658Z,16.85
2019-05-07T08:36:47.507Z,13.95
2019-05-07T08:39:15.929Z,13.83
2019-05-07T08:41:44.364Z,11.85
2019-05-07T08:44:36.181Z,14.13
2019-05-07T08:47:14.843Z,13.18
2019-05-07T08:49:43.633Z,16.45
2019-05-07T08:52:12.199Z,15.40
2019-05-07T08:54:42.618Z,15.98
2019-05-07T08:57:12.107Z,15.83
2019-05-07T08:59:42.457Z,15.38
2019-05-07T09:02:12.563Z,14.23
2019-05-07T09:04:41.767Z,12.75
2019-05-07T09:07:10.302Z,13.50
2019-05-07T09:09:38.724Z,14.85
2019-05-07T09:12:07.145Z,14.53
2019-05-07T09:14:35.571Z,14.80
2019-05-07T09:17:04.146Z,13.43
2019-05-07T09:19:46.757Z,14.13
2019-05-07T09:22:03.604Z,12.37
2019-05-07T09:24:33.268Z,14.93
2019-05-07T09:27:12.536Z,13.80
2019-05-07T09:29:52.141Z,14.90
2019-05-07T09:32:32.692Z,16.20
2019-05-07T09:35:05.928Z,16.35
2019-05-07T09:37:34.342Z,15.55
2019-05-07T09:40:03.162Z,16.32
2019-05-07T09:42:33.375Z,15.85
2019-05-07T09:45:02.081Z,17.42
2019-05-07T09:47:32.565Z,15.48
2019-05-07T09:50:05.449Z,14.83
2019-05-07T09:52:32.114Z,16.20
2019-05-07T09:55:06.694Z,16.07
2019-05-07T09:57:33.916Z,16.75
2019-05-07T10:00:02.203Z,17.45
2019-05-07T10:02:32.082Z,16.17
2019-05-07T10:05:02.352Z,16.25
2019-05-07T10:07:32.503Z,16.27
2019-05-07T10:10:03.209Z,15.88
2019-05-07T10:12:39.110Z,14.93
2019-05-07T10:15:08.190Z,14.68
2019-05-07T10:17:40.994Z,14.53
2019-05-07T10:20:19.180Z,15.55
2019-05-07T10:22:42.693Z,16.10
2019-05-07T10:25:12.163Z,15.30
2019-05-07T10:27:41.831Z,14.87
2019-05-07T10:30:12.807Z,14.53
2019-05-07T10:32:42.116Z,14.80
2019-05-07T10:35:12.836Z,14.43
2019-05-07T10:37:42.293Z,14.45
2019-05-07T10:40:14.246Z,15.48
2019-05-07T10:42:43.259Z,14.30
2019-05-07T10:45:32.303Z,14.45
2019-05-07T10:48:11.731Z,14.55
2019-05-07T10:50:42.525Z,13.88
2019-05-07T10:53:12.576Z,13.70
2019-05-07T10:55:42.240Z,15.00
2019-05-07T10:58:11.305Z,14.53
2019-05-07T11:00:41.972Z,14.78
2019-05-07T11:03:10.121Z,14.03
2019-05-07T11:05:38.673Z,14.35
2019-05-07T11:08:07.171Z,13.78
2019-05-07T11:10:35.600Z,13.75
2019-05-07T11:13:04.124Z,13.93
2019-05-07T11:15:32.960Z,13.60
2019-05-07T11:18:03.699Z,14.35
2019-05-07T11:20:32.172Z,13.13
2019-05-07T11:23:02.497Z,12.23
2019-05-07T11:25:30.724Z,10.40
2019-05-07T11:27:59.227Z,9.53
2019-05-07T11:30:27.709Z,9.25
2019-05-07T11:32:56.131Z,9.65
2019-05-07T11:35:24.547Z,9.53
2019-05-07T11:37:53.066Z,9.55
2019-05-07T11:40:23.475Z,8.38
2019-05-07T11:42:59.337Z,9.58
2019-05-07T11:45:45.726Z,8.78
2019-05-07T11:48:14.711Z,9.38
2019-05-07T11:51:03.684Z,9.43
2019-05-07T11:53:32.561Z,8.80
2019-05-07T11:56:02.574Z,9.10
2019-05-07T11:58:32.462Z,9.80
2019-05-07T12:01:03.934Z,9.98
2019-05-07T12:03:32.695Z,9.08
2019-05-07T12:06:02.063Z,8.50
2019-05-07T12:08:39.345Z,9.38
2019-05-07T12:11:02.435Z,8.70
2019-05-07T12:13:32.355Z,8.15
2019-05-07T12:16:03.025Z,8.25
2019-05-07T12:18:31.959Z,8.98
2019-05-07T12:21:03.731Z,7.92
2019-05-07T12:23:33.035Z,8.48
2019-05-07T12:26:02.228Z,7.70
2019-05-07T12:28:32.770Z,8.10
2019-05-07T12:31:15.102Z,7.15
2019-05-07T12:33:52.215Z,7.62
2019-05-07T12:36:22.735Z,7.97
2019-05-07T12:38:53.291Z,8.35
2019-05-07T12:41:33.851Z,8.98
2019-05-07T12:44:04.345Z,10.10
2019-05-07T12:46:37.670Z,10.55
2019-05-07T12:49:06.253Z,9.43
2019-05-07T12:51:37.673Z,10.00
2019-05-07T12:54:26.322Z,9.40
2019-05-07T12:56:54.777Z,10.03
2019-05-07T12:59:23.211Z,9.63
2019-05-07T13:01:56.213Z,9.55
2019-05-07T13:04:26.277Z,10.48
2019-05-07T13:06:56.358Z,10.00
2019-05-07T13:09:24.785Z,9.25
2019-05-07T13:11:53.215Z,8.80
2019-05-07T13:14:21.924Z,8.88
2019-05-07T13:16:52.181Z,8.05
2019-05-07T13:19:22.424Z,9.90
2019-05-07T13:21:50.608Z,8.90
2019-05-07T13:24:19.029Z,9.25
2019-05-07T13:26:47.457Z,9.05
2019-05-07T13:29:15.879Z,8.10
2019-05-07T13:31:44.881Z,6.83
2019-05-07T13:34:13.541Z,7.50
2019-05-07T13:36:43.791Z,7.83
2019-05-07T13:39:23.322Z,6.75
2019-05-07T13:41:55.011Z,7.47
2019-05-07T13:44:25.317Z,7.12
2019-05-07T13:46:55.482Z,7.83
2019-05-07T13:49:24.132Z,7.97
2019-05-07T13:52:02.833Z,8.18
2019-05-07T13:54:23.020Z,8.25
2019-05-07T13:56:52.548Z,8.15
2019-05-07T13:59:22.323Z,6.83
2019-05-07T14:01:52.556Z,7.20
2019-05-07T14:04:22.289Z,6.55
2019-05-07T14:06:52.928Z,8.23
2019-05-07T14:09:25.552Z,8.33
2019-05-07T14:11:54.128Z,8.60
2019-05-07T14:14:22.681Z,8.80
2019-05-07T14:16:53.326Z,8.03
2019-05-07T14:19:22.437Z,8.33
2019-05-07T14:21:52.503Z,6.87
2019-05-07T14:24:22.900Z,8.00
2019-05-07T14:26:52.756Z,7.67
2019-05-07T14:29:24.383Z,6.83
2019-05-07T14:31:54.548Z,6.10
2019-05-07T14:34:24.659Z,7.65
2019-05-07T14:37:04.696Z,7.37
2019-05-07T14:39:36.221Z,6.28
2019-05-07T14:42:13.631Z,5.75
2019-05-07T14:44:48.826Z,5.72
2019-05-07T14:47:18.782Z,7.12
2019-05-07T14:49:48.241Z,6.37
2019-05-07T14:52:30.101Z,6.60
2019-05-07T14:54:50.274Z,7.30
2019-05-07T14:57:18.761Z,6.60
2019-05-07T14:59:47.323Z,7.00
2019-05-07T15:02:15.877Z,7.15
2019-05-07T15:04:52.508Z,5.80
2019-05-07T15:07:22.662Z,5.83
2019-05-07T15:09:51.880Z,6.95
2019-05-07T15:12:23.293Z,6.03
2019-05-07T15:14:53.554Z,6.58
2019-05-07T15:17:25.047Z,5.97
2019-05-07T15:19:53.729Z,6.47
2019-05-07T15:22:23.863Z,5.67
2019-05-07T15:24:55.023Z,5.53
2019-05-07T15:27:23.922Z,6.28
2019-05-07T15:29:52.748Z,6.62
2019-05-07T15:32:21.811Z,6.70
2019-05-07T15:34:52.554Z,6.83
2019-05-07T15:37:20.593Z,7.30
2019-05-07T15:39:49.015Z,6.75
2019-05-07T15:42:17.580Z,5.45
2019-05-07T15:44:46.060Z,7.17
2019-05-07T15:47:16.119Z,7.70
2019-05-07T15:49:44.549Z,7.55
2019-05-07T15:52:23.359Z,6.70
2019-05-07T15:54:54.775Z,7.03
2019-05-07T15:57:27.231Z,6.35
2019-05-07T15:59:57.304Z,6.03
2019-05-07T16:02:33.326Z,7.03
2019-05-07T16:05:04.994Z,7.42
2019-05-07T16:07:33.243Z,7.55
2019-05-07T16:10:01.673Z,7.05
2019-05-07T16:12:32.020Z,8.28
2019-05-07T16:15:00.445Z,7.75
2019-05-07T16:17:32.458Z,7.30
2019-05-07T16:20:02.986Z,7.53
2019-05-07T16:22:35.004Z,7.45
2019-05-07T16:25:07.197Z,7.42
2019-05-07T16:27:35.398Z,7.40
2019-05-07T16:30:05.982Z,8.58
2019-05-07T16:32:35.641Z,6.95
2019-05-07T16:35:05.651Z,6.22
2019-05-07T16:37:34.287Z,8.38
2019-05-07T16:40:04.767Z,6.78
2019-05-07T16:42:33.175Z,7.65
2019-05-07T16:45:02.864Z,7.50
2019-05-07T16:47:31.551Z,8.38
2019-05-07T16:50:05.610Z,8.90
2019-05-07T16:52:35.231Z,8.83
2019-05-07T16:55:04.087Z,8.23
2019-05-07T16:57:42.334Z,9.18
2019-05-07T17:00:25.644Z,8.13
2019-05-07T17:02:55.708Z,6.12
2019-05-07T17:05:24.137Z,8.68
2019-05-07T17:07:59.890Z,8.48
2019-05-07T17:10:28.303Z,6.97
2019-05-07T17:12:56.811Z,7.00
2019-05-07T17:15:25.390Z,7.65
2019-05-07T17:18:00.055Z,7.97
2019-05-07T17:20:29.522Z,8.28
2019-05-07T17:22:58.306Z,7.40
2019-05-07T17:25:30.472Z,8.45
2019-05-07T17:27:59.979Z,7.83
2019-05-07T17:30:28.413Z,8.30
2019-05-07T17:32:56.914Z,7.87
2019-05-07T17:35:25.413Z,8.83
2019-05-07T17:38:06.026Z,10.43
2019-05-07T17:40:24.118Z,8.00
2019-05-07T17:42:52.619Z,9.78
2019-05-07T17:45:22.748Z,11.60
2019-05-07T17:47:52.903Z,12.10
2019-05-07T17:50:35.279Z,9.93
2019-05-07T17:53:03.939Z,9.50
2019-05-07T17:55:33.180Z,9.10
2019-05-07T17:58:02.080Z,8.08
2019-05-07T18:00:32.688Z,8.20
2019-05-07T18:03:14.501Z,9.63
2019-05-07T18:05:44.284Z,7.72
2019-05-07T18:08:15.856Z,7.80
2019-05-07T18:10:44.352Z,8.33
2019-05-07T18:13:12.830Z,8.70
2019-05-07T18:15:42.746Z,9.48
2019-05-07T18:18:15.345Z,8.65
2019-05-07T18:20:43.888Z,9.48
2019-05-07T18:23:17.233Z,8.00
2019-05-07T18:25:42.848Z,7.97
2019-05-07T18:28:12.445Z,10.00
2019-05-07T18:30:41.083Z,9.98
2019-05-07T18:33:16.715Z,9.53
2019-05-07T18:35:46.881Z,9.63
2019-05-07T18:38:15.446Z,9.65
2019-05-07T18:40:43.872Z,10.00
2019-05-07T18:43:14.843Z,10.43
2019-05-07T18:45:43.895Z,10.23
2019-05-07T18:48:12.377Z,10.38
2019-05-07T18:50:42.416Z,11.15
2019-05-07T18:53:12.153Z,10.43
2019-05-07T18:55:42.317Z,10.50
2019-05-07T18:58:13.204Z,8.98
2019-05-07T19:00:48.708Z,10.23
2019-05-07T19:03:17.130Z,10.78
2019-05-07T19:05:48.675Z,10.32
2019-05-07T19:08:17.222Z,10.90
2019-05-07T19:10:45.731Z,11.70
2019-05-07T19:13:14.294Z,11.50
2019-05-07T19:15:44.647Z,11.22
2019-05-07T19:18:13.065Z,10.03
2019-05-07T19:20:42.155Z,12.23
2019-05-07T19:23:26.763Z,12.98
2019-05-07T19:25:55.222Z,11.45
2019-05-07T19:28:23.637Z,12.25
2019-05-07T19:30:52.907Z,11.10
2019-05-07T19:33:26.758Z,11.40
2019-05-07T19:35:52.916Z,10.88
2019-05-07T19:38:21.472Z,10.80
2019-05-07T19:40:49.964Z,10.25
2019-05-07T19:43:18.404Z,10.63
2019-05-07T19:45:46.846Z,10.15
2019-05-07T19:48:15.320Z,10.28
2019-05-07T19:50:43.846Z,11.03
2019-05-07T19:53:12.589Z,10.72
2019-05-07T19:55:45.376Z,10.32
2019-05-07T19:58:12.976Z,10.68
2019-05-07T20:00:42.783Z,11.48
2019-05-07T20:03:13.118Z,11.03
2019-05-07T20:05:42.002Z,11.90
2019-05-07T20:08:12.023Z,10.53
2019-05-07T20:10:42.318Z,11.65
2019-05-07T20:13:12.455Z,11.05
2019-05-07T20:15:42.927Z,9.38
2019-05-07T20:18:12.431Z,9.80
2019-05-07T20:20:42.450Z,10.18
2019-05-07T20:23:12.888Z,10.38
2019-05-07T20:25:42.010Z,10.18
2019-05-07T20:28:12.718Z,8.95
2019-05-07T20:30:41.815Z,10.30
2019-05-07T20:33:10.552Z,11.40
2019-05-07T20:35:41.285Z,9.45
2019-05-07T20:38:09.470Z,10.00
2019-05-07T20:40:38.147Z,10.03
2019-05-07T20:43:09.479Z,9.53
2019-05-07T20:45:38.081Z,9.23
2019-05-07T20:48:06.910Z,9.78
2019-05-07T20:50:35.472Z,9.45
2019-05-07T20:53:04.161Z,9.63
2019-05-07T20:55:39.996Z,9.78
2019-05-07T20:58:08.561Z,9.13
2019-05-07T21:00:37.293Z,8.35
2019-05-07T21:03:23.345Z,8.08
2019-05-07T21:05:53.225Z,9.70
2019-05-07T21:08:22.707Z,8.65
2019-05-07T21:10:57.747Z,8.65
2019-05-07T21:15:55.568Z,8.80
2019-05-07T21:18:24.006Z,8.60
2019-05-07T21:20:53.071Z,8.70
2019-05-07T21:23:23.071Z,9.10
2019-05-07T21:25:52.734Z,8.38
2019-05-07T21:28:21.744Z,8.63
2019-05-07T21:30:52.261Z,8.80
2019-05-07T21:33:22.602Z,8.60
2019-05-07T21:35:52.265Z,9.18
2019-05-07T21:38:22.362Z,9.18
2019-05-07T21:40:50.863Z,8.48
2019-05-07T21:43:19.302Z,10.40
2019-05-07T21:45:47.733Z,10.05
2019-05-07T21:48:16.182Z,10.43
2019-05-07T21:50:44.615Z,9.78
2019-05-07T21:53:29.387Z,10.70
2019-05-07T21:58:43.872Z,11.33
2019-05-07T22:01:14.037Z,12.00
2019-05-07T22:03:44.338Z,9.63
2019-05-07T22:06:14.409Z,10.18
2019-05-07T22:08:42.916Z,10.58
2019-05-07T22:11:12.457Z,11.68
2019-05-07T22:13:43.309Z,9.65
2019-05-07T22:16:12.989Z,10.08
2019-05-07T22:18:42.722Z,9.53
2019-05-07T22:21:12.439Z,9.43
2019-05-07T22:23:42.870Z,8.43
2019-05-07T22:26:20.351Z,8.90
2019-05-07T22:28:42.134Z,8.70
2019-05-07T22:31:31.656Z,9.35
2019-05-07T22:34:07.491Z,9.10
2019-05-07T22:36:35.925Z,8.63
2019-05-07T22:39:05.791Z,6.58
2019-05-07T22:41:34.245Z,8.25
2019-05-07T22:44:02.698Z,8.28
2019-05-07T22:46:32.653Z,8.63
2019-05-07T22:49:03.109Z,8.78
2019-05-07T22:51:31.562Z,8.80
2019-05-07T22:54:03.906Z,9.08
2019-05-07T22:56:48.078Z,8.65
2019-05-07T22:59:17.794Z,7.87
2019-05-07T23:01:46.232Z,8.23
2019-05-07T23:04:14.665Z,8.55
2019-05-07T23:06:43.675Z,6.95
2019-05-07T23:09:12.799Z,7.33
2019-05-07T23:11:41.375Z,7.22
2019-05-07T23:14:11.795Z,8.15
2019-05-07T23:16:39.999Z,7.65
2019-05-07T23:19:08.462Z,7.30
2019-05-07T23:21:36.889Z,7.05
2019-05-07T23:24:05.384Z,7.62
2019-05-07T23:26:47.226Z,7.47
2019-05-07T23:29:03.988Z,7.37
2019-05-07T23:31:32.423Z,8.03
2019-05-07T23:34:01.896Z,7.80
2019-05-07T23:36:30.582Z,6.50
2019-05-07T23:38:59.011Z,8.15
2019-05-07T23:41:45.455Z,8.25
2019-05-07T23:44:17.916Z,7.05
2019-05-07T23:46:47.555Z,7.20
2019-05-07T23:49:15.979Z,8.35
2019-05-07T23:51:44.482Z,7.53
2019-05-07T23:54:12.961Z,8.80
2019-05-07T23:56:42.655Z,7.72
2019-05-07T23:59:12.740Z,6.87
